Time;durP1;ratioP1;P1;durP2;ratioP2;P2;SDS_P1;SDS_P2;PMS_P1;PMS_P2;Temp;Humidity;BMP_temperature;BMP_pressure;BME280_temperature;BME280_humidity;BME280_pressure;Samples;Min_cycle;Max_cycle;Signal;HPM_P1;HPM_P2
2022/08/05 00:01:01;;;;;;;3.10;2.70;;;22.70;99.90;;;;;;5091609;28;20162;-50
2022/08/05 00:03:27;;;;;;;7.18;3.50;;;22.60;99.90;;;;;;5092084;28;20296;-55
2022/08/05 00:06:01;;;;;;;5.13;2.85;;;22.60;99.90;;;;;;5091881;28;20185;-57
2022/08/05 00:08:26;;;;;;;5.40;2.78;;;22.60;99.90;;;;;;5092138;28;20169;-55
2022/08/05 00:10:52;;;;;;;5.30;3.20;;;22.60;99.90;;;;;;5091650;28;20174;-49
2022/08/05 00:13:17;;;;;;;3.92;3.17;;;22.60;99.90;;;;;;5091601;28;20221;-53
2022/08/05 00:15:43;;;;;;;6.75;3.55;;;22.60;99.90;;;;;;5091792;28;20518;-53
2022/08/05 00:18:08;;;;;;;5.25;3.50;;;22.50;99.90;;;;;;5090996;28;20165;-51
2022/08/05 00:20:34;;;;;;;5.28;3.78;;;22.50;99.90;;;;;;5091755;28;20161;-48
2022/08/05 00:22:59;;;;;;;3.95;3.15;;;22.40;99.90;;;;;;5091537;28;20280;-56
2022/08/05 00:25:25;;;;;;;4.28;3.20;;;22.30;99.90;;;;;;5092285;28;20169;-51
2022/08/05 00:27:51;;;;;;;4.10;2.70;;;22.20;99.90;;;;;;5091486;28;20640;-56
2022/08/05 00:30:16;;;;;;;6.43;3.03;;;22.10;99.90;;;;;;5091604;28;20499;-51
2022/08/05 00:32:42;;;;;;;3.92;2.90;;;22.10;99.90;;;;;;5091617;28;20169;-56
2022/08/05 00:35:08;;;;;;;8.05;3.70;;;21.90;99.90;;;;;;5091460;28;20724;-47
2022/08/05 00:37:34;;;;;;;4.18;3.10;;;21.90;99.90;;;;;;5091542;28;20161;-52
2022/08/05 00:39:59;;;;;;;5.53;3.40;;;21.90;99.90;;;;;;5091578;28;20165;-47
2022/08/05 00:42:33;;;;;;;4.82;3.40;;;21.80;99.90;;;;;;5091645;28;20169;-49
2022/08/05 00:44:59;;;;;;;6.05;3.78;;;21.90;99.90;;;;;;5091373;28;20525;-46
2022/08/05 00:47:25;;;;;;;3.45;3.03;;;21.90;99.90;;;;;;5091757;28;20193;-53
2022/08/05 00:49:50;;;;;;;3.63;3.22;;;21.80;99.90;;;;;;5091377;28;20223;-53
2022/08/05 00:52:16;;;;;;;4.97;3.15;;;21.70;99.90;;;;;;5091336;28;20751;-52
2022/08/05 00:54:42;;;;;;;6.53;3.80;;;21.60;99.90;;;;;;5091386;28;20176;-56
2022/08/05 00:57:07;;;;;;;4.65;3.70;;;21.70;99.90;;;;;;5091422;28;20176;-55
2022/08/05 00:59:33;;;;;;;3.90;3.25;;;21.60;99.90;;;;;;5091317;28;20637;-53
2022/08/05 01:01:58;;;;;;;7.00;3.33;;;21.60;99.90;;;;;;5091266;28;20162;-52
2022/08/05 01:04:24;;;;;;;8.10;3.72;;;21.60;99.90;;;;;;5091546;28;20358;-51
2022/08/05 01:06:49;;;;;;;8.77;3.97;;;21.50;99.90;;;;;;5091337;28;20169;-55
2022/08/05 01:09:15;;;;;;;5.88;4.38;;;21.50;99.90;;;;;;5091423;28;20177;-53
2022/08/05 01:11:45;;;;;;;5.80;3.65;;;21.40;99.90;;;;;;5091031;28;20711;-52
2022/08/05 01:14:23;;;;;;;3.45;2.92;;;21.40;99.90;;;;;;5091166;28;20564;-49
2022/08/05 01:17:01;;;;;;;3.42;3.13;;;21.40;99.90;;;;;;5091006;28;20172;-51
2022/08/05 01:19:29;;;;;;;4.93;3.30;;;21.40;99.90;;;;;;5091458;28;20164;-56
2022/08/05 01:22:17;;;;;;;7.20;3.78;;;21.40;99.90;;;;;;5091372;28;20195;-52
2022/08/05 01:25:07;;;;;;;5.35;3.80;;;21.20;99.90;;;;;;5091389;28;20693;-55
2022/08/05 01:28:11;;;;;;;6.95;4.57;;;21.10;99.90;;;;;;5090848;28;20169;-48
2022/08/05 01:30:42;;;;;;;6.57;4.03;;;21.10;99.90;;;;;;5094422;28;20169;-47
2022/08/05 01:33:10;;;;;;;7.00;4.47;;;21.20;99.90;;;;;;5094673;28;20218;-47
2022/08/05 01:35:41;;;;;;;5.78;4.75;;;21.20;99.90;;;;;;5094469;28;20165;-47
2022/08/05 01:38:08;;;;;;;6.03;4.95;;;21.10;99.90;;;;;;5094615;28;20629;-50
2022/08/05 01:40:37;;;;;;;7.30;5.30;;;21.10;99.90;;;;;;5094715;28;20174;-46
2022/08/05 01:43:03;;;;;;;5.00;4.22;;;21.00;99.90;;;;;;5094802;28;20279;-47
2022/08/05 01:45:30;;;;;;;7.30;4.78;;;20.90;99.90;;;;;;5094611;28;20165;-47
2022/08/05 01:47:59;;;;;;;6.55;5.00;;;20.90;99.90;;;;;;5094765;28;20527;-46
2022/08/05 01:50:27;;;;;;;6.25;5.45;;;20.80;99.90;;;;;;5094746;28;20161;-45
2022/08/05 01:52:57;;;;;;;9.65;6.55;;;20.90;99.90;;;;;;5094687;28;20176;-45
2022/08/05 01:55:26;;;;;;;7.25;5.60;;;20.90;99.90;;;;;;5094627;28;20231;-46
2022/08/05 01:57:53;;;;;;;7.13;5.20;;;20.90;99.90;;;;;;5094246;28;20170;-46
2022/08/05 02:00:19;;;;;;;7.82;5.60;;;20.80;99.90;;;;;;5094137;28;20171;-47
2022/08/05 02:02:55;;;;;;;7.43;4.93;;;20.90;99.90;;;;;;5094071;28;20227;-51
2022/08/05 02:05:26;;;;;;;5.47;4.97;;;20.90;99.90;;;;;;5094134;28;20548;-47
2022/08/05 02:07:52;;;;;;;6.93;4.20;;;20.90;99.90;;;;;;5094050;28;20274;-49
2022/08/05 02:10:18;;;;;;;6.55;4.78;;;20.90;99.90;;;;;;5093980;28;20192;-47
2022/08/05 02:13:00;;;;;;;7.20;5.10;;;20.90;99.90;;;;;;5093988;28;20228;-45
2022/08/05 02:15:32;;;;;;;8.23;5.47;;;20.90;99.90;;;;;;5094255;28;20154;-46
2022/08/05 02:18:13;;;;;;;7.13;4.80;;;20.90;99.90;;;;;;5076950;28;20193;-46
2022/08/05 02:20:52;;;;;;;5.22;4.47;;;20.80;99.90;;;;;;5093542;28;20206;-45
2022/08/05 02:23:24;;;;;;;5.35;4.38;;;20.70;99.90;;;;;;5093708;28;20236;-48
2022/08/05 02:25:51;;;;;;;6.00;5.28;;;20.60;99.90;;;;;;5093784;28;20184;-47
2022/08/05 02:28:24;;;;;;;7.03;5.60;;;20.70;99.90;;;;;;5093789;28;20260;-47
2022/08/05 02:30:57;;;;;;;6.38;5.28;;;20.50;99.90;;;;;;5093766;28;20170;-46
2022/08/05 02:33:24;;;;;;;12.30;5.90;;;20.50;99.90;;;;;;5092834;28;20656;-45
2022/08/05 02:35:52;;;;;;;7.50;5.68;;;20.40;99.90;;;;;;5093771;28;20173;-45
2022/08/05 02:38:19;;;;;;;9.95;6.05;;;20.40;99.90;;;;;;5093707;28;20173;-45
2022/08/05 02:40:45;;;;;;;8.05;6.53;;;20.30;99.90;;;;;;5092788;28;20169;-46
2022/08/05 02:43:12;;;;;;;6.13;5.53;;;20.40;99.90;;;;;;5093333;28;20293;-45
2022/08/05 02:45:40;;;;;;;9.73;5.13;;;20.30;99.90;;;;;;5093296;28;20201;-49
2022/08/05 02:48:08;;;;;;;13.55;5.45;;;20.30;99.90;;;;;;5093242;28;20660;-52
2022/08/05 02:50:35;;;;;;;9.98;5.47;;;20.10;99.90;;;;;;5093120;28;20204;-50
2022/08/05 02:53:02;;;;;;;13.48;6.78;;;20.00;99.90;;;;;;5093021;28;20165;-48
2022/08/05 02:55:30;;;;;;;7.18;5.50;;;20.00;99.90;;;;;;5092982;28;20256;-48
2022/08/05 02:57:57;;;;;;;7.82;5.88;;;19.70;99.90;;;;;;5093489;28;20173;-46
2022/08/05 03:00:23;;;;;;;9.25;6.10;;;19.80;99.90;;;;;;5093455;28;20162;-45
2022/08/05 03:02:51;;;;;;;8.85;6.25;;;19.90;99.90;;;;;;5092786;28;20532;-47
2022/08/05 03:05:18;;;;;;;10.00;6.30;;;19.80;99.90;;;;;;5093031;28;20558;-46
2022/08/05 03:07:45;;;;;;;8.10;6.25;;;19.80;99.90;;;;;;5092893;28;20172;-45
2022/08/05 03:10:13;;;;;;;9.07;6.40;;;19.90;99.90;;;;;;5092748;28;20170;-47
2022/08/05 03:12:39;;;;;;;8.60;6.13;;;19.90;99.90;;;;;;5092572;28;20303;-45
2022/08/05 03:15:07;;;;;;;7.45;6.53;;;19.90;99.90;;;;;;5092657;28;20201;-45
2022/08/05 03:17:33;;;;;;;7.47;6.68;;;20.10;99.90;;;;;;5092935;28;20531;-45
2022/08/05 03:19:59;;;;;;;10.52;8.45;;;20.10;99.90;;;;;;5092481;28;20222;-47
2022/08/05 03:22:25;;;;;;;9.63;7.40;;;20.10;99.90;;;;;;5092990;28;20244;-47
2022/08/05 03:24:51;;;;;;;8.90;6.85;;;20.20;99.90;;;;;;5092231;28;20641;-48
2022/08/05 03:27:19;;;;;;;8.73;6.68;;;20.00;99.90;;;;;;5092609;28;20169;-49
2022/08/05 03:29:45;;;;;;;7.40;6.60;;;19.90;99.90;;;;;;5092392;28;20169;-49
2022/08/05 03:32:14;;;;;;;10.80;7.75;;;19.90;99.90;;;;;;5092428;28;20168;-49
2022/08/05 03:34:40;;;;;;;8.05;6.80;;;19.90;99.90;;;;;;5092563;28;20193;-45
2022/08/05 03:37:06;;;;;;;9.38;7.00;;;20.00;99.90;;;;;;5092171;28;20196;-47
2022/08/05 03:39:32;;;;;;;9.63;7.20;;;20.10;99.90;;;;;;5092505;28;20244;-47
2022/08/05 03:41:57;;;;;;;9.40;7.82;;;20.10;99.90;;;;;;5092122;28;20692;-48
2022/08/05 03:44:24;;;;;;;9.50;7.80;;;20.20;99.90;;;;;;5092463;28;20587;-46
2022/08/05 03:46:50;;;;;;;12.07;8.38;;;20.10;99.90;;;;;;5092169;28;20189;-46
2022/08/05 03:49:16;;;;;;;9.82;8.35;;;20.10;99.90;;;;;;5092038;28;20246;-46
2022/08/05 03:52:09;;;;;;;11.02;8.70;;;20.20;99.90;;;;;;5091892;28;20161;-45
2022/08/05 03:54:52;;;;;;;12.80;10.38;;;20.30;99.90;;;;;;5088445;28;20305;-47
2022/08/05 03:57:24;;;;;;;14.52;11.10;;;20.30;99.90;;;;;;5091992;28;20531;-46
2022/08/05 04:00:03;;;;;;;13.20;10.48;;;20.30;99.90;;;;;;5091925;28;20201;-46
2022/08/05 04:02:31;;;;;;;10.10;9.10;;;20.40;99.90;;;;;;5092036;28;20512;-46
2022/08/05 04:04:58;;;;;;;10.05;8.45;;;20.40;99.90;;;;;;5091982;28;20169;-49
2022/08/05 04:07:25;;;;;;;9.70;7.55;;;20.40;99.90;;;;;;5091891;28;20211;-46
2022/08/05 04:09:52;;;;;;;11.20;8.75;;;20.40;99.90;;;;;;5091756;28;20165;-46
2022/08/05 04:12:18;;;;;;;11.43;8.70;;;20.40;99.90;;;;;;5091679;28;20217;-46
2022/08/05 04:14:44;;;;;;;10.35;8.75;;;20.40;99.90;;;;;;5091713;28;20172;-46
2022/08/05 04:17:10;;;;;;;12.55;9.73;;;20.50;99.90;;;;;;5091645;28;20713;-46
2022/08/05 04:19:44;;;;;;;14.30;10.15;;;20.40;99.90;;;;;;5091900;28;20177;-47
2022/08/05 04:22:11;;;;;;;10.48;9.27;;;20.40;99.90;;;;;;5091703;28;20226;-45
2022/08/05 04:24:40;;;;;;;10.88;9.15;;;20.30;99.90;;;;;;5091389;28;20296;-50
2022/08/05 04:27:06;;;;;;;12.35;8.82;;;20.30;99.90;;;;;;5091596;28;20173;-49
2022/08/05 04:29:31;;;;;;;9.18;8.20;;;20.20;99.90;;;;;;5091291;28;20628;-46
2022/08/05 04:31:57;;;;;;;10.82;8.32;;;20.30;99.90;;;;;;5091376;28;20613;-46
2022/08/05 04:34:23;;;;;;;10.05;8.95;;;20.30;99.90;;;;;;5091692;28;20161;-45
2022/08/05 04:36:48;;;;;;;10.80;8.23;;;20.20;99.90;;;;;;5091436;28;20176;-46
2022/08/05 04:39:14;;;;;;;11.77;9.23;;;20.10;99.90;;;;;;5091409;28;20168;-45
2022/08/05 04:41:39;;;;;;;14.10;10.73;;;20.10;99.90;;;;;;5091117;28;20184;-46
2022/08/05 04:44:05;;;;;;;12.50;10.25;;;20.10;99.90;;;;;;5091428;28;20212;-46
2022/08/05 04:46:31;;;;;;;12.18;10.05;;;20.00;99.90;;;;;;5091240;28;20310;-44
2022/08/05 04:48:57;;;;;;;12.80;10.30;;;20.00;99.90;;;;;;5091217;28;20173;-45
2022/08/05 04:51:22;;;;;;;17.00;10.75;;;20.10;99.90;;;;;;5091611;28;20255;-45
2022/08/05 04:53:48;;;;;;;13.93;11.52;;;20.30;99.90;;;;;;5091393;28;20169;-46
2022/08/05 04:56:14;;;;;;;13.18;11.02;;;20.30;99.90;;;;;;5100922;28;20180;-48
2022/08/05 04:58:40;;;;;;;14.68;11.68;;;20.40;99.90;;;;;;5102552;28;20627;-56
2022/08/05 05:01:05;;;;;;;18.30;15.23;;;20.50;99.90;;;;;;5099428;28;20237;-54
2022/08/05 05:03:31;;;;;;;22.98;17.27;;;20.40;99.90;;;;;;5100124;28;20205;-55
2022/08/05 05:05:57;;;;;;;24.35;18.45;;;20.40;99.90;;;;;;5104947;28;20165;-48
2022/08/05 05:08:23;;;;;;;24.67;17.75;;;20.40;99.90;;;;;;5098092;28;20260;-49
2022/08/05 05:10:48;;;;;;;22.50;17.10;;;20.50;99.90;;;;;;5095332;28;20176;-48
2022/08/05 05:13:16;;;;;;;24.67;18.00;;;20.40;99.90;;;;;;5094587;28;20616;-52
2022/08/05 05:15:43;;;;;;;23.98;17.08;;;20.50;99.90;;;;;;5094966;28;20181;-51
2022/08/05 05:18:11;;;;;;;24.42;17.30;;;20.50;99.90;;;;;;5094585;28;20165;-55
2022/08/05 05:20:37;;;;;;;25.50;16.88;;;20.60;99.90;;;;;;5094954;28;20162;-53
2022/08/05 05:23:03;;;;;;;24.92;17.13;;;20.60;99.90;;;;;;5076520;28;20251;-52
2022/08/05 05:25:29;;;;;;;22.42;16.92;;;20.50;99.90;;;;;;5094628;28;20173;-50
2022/08/05 05:27:55;;;;;;;23.88;17.13;;;20.60;99.90;;;;;;5094902;28;20174;-54
2022/08/05 05:30:21;;;;;;;21.08;15.55;;;20.60;99.90;;;;;;5094947;28;20643;-50
2022/08/05 05:32:47;;;;;;;24.65;16.92;;;20.60;99.90;;;;;;5094762;28;20260;-52
2022/08/05 05:35:13;;;;;;;27.92;17.42;;;20.60;99.90;;;;;;5094752;28;20207;-52
2022/08/05 05:37:56;;;;;;;26.98;18.63;;;20.50;99.90;;;;;;5094480;28;20521;-53
2022/08/05 05:40:23;;;;;;;25.48;18.83;;;20.60;99.90;;;;;;5093380;28;20169;-53
2022/08/05 05:42:49;;;;;;;23.40;17.85;;;20.40;99.90;;;;;;5093936;28;20189;-52
2022/08/05 05:45:16;;;;;;;27.92;19.58;;;20.40;99.90;;;;;;5094004;28;20211;-45
2022/08/05 05:47:43;;;;;;;29.98;21.90;;;20.40;99.90;;;;;;5093941;28;20173;-50
2022/08/05 05:50:10;;;;;;;33.45;21.98;;;20.30;99.90;;;;;;5093730;28;20253;-50
2022/08/05 05:52:36;;;;;;;31.98;23.42;;;20.30;99.90;;;;;;5093999;28;20161;-52
2022/08/05 05:55:04;;;;;;;32.28;22.30;;;20.40;99.90;;;;;;5093812;28;20210;-50
2022/08/05 05:57:30;;;;;;;28.42;21.08;;;20.40;99.90;;;;;;5094213;28;20161;-48
2022/08/05 05:59:55;;;;;;;28.13;19.75;;;20.50;99.90;;;;;;5094792;28;20256;-52
2022/08/05 06:02:21;;;;;;;28.05;20.27;;;20.50;99.90;;;;;;5093834;28;20157;-46
2022/08/05 06:04:46;;;;;;;27.00;20.23;;;20.40;99.90;;;;;;5106141;28;20219;-53
2022/08/05 06:07:12;;;;;;;30.35;21.48;;;20.50;99.90;;;;;;5094551;28;20264;-46
2022/08/05 06:09:38;;;;;;;31.00;21.30;;;20.50;99.90;;;;;;5093816;28;20170;-45
2022/08/05 06:12:04;;;;;;;31.60;22.45;;;20.40;99.90;;;;;;5093676;28;20213;-45
2022/08/05 06:14:31;;;;;;;32.30;22.33;;;20.50;99.90;;;;;;5094636;28;20176;-47
2022/08/05 06:16:58;;;;;;;31.73;23.23;;;20.50;99.90;;;;;;5131569;27;20245;-47
2022/08/05 06:19:25;;;;;;;32.33;23.35;;;20.50;99.90;;;;;;5134963;27;20578;-46
2022/08/05 06:21:50;;;;;;;34.90;22.92;;;20.50;99.90;;;;;;5105711;28;20261;-48
2022/08/05 06:24:16;;;;;;;41.00;24.88;;;20.40;99.90;;;;;;5102632;28;20233;-50
2022/08/05 06:26:42;;;;;;;41.70;26.92;;;20.30;99.90;;;;;;5113874;28;20169;-48
2022/08/05 06:29:07;;;;;;;41.72;27.52;;;20.40;99.90;;;;;;5113784;28;20627;-44
2022/08/05 06:31:33;;;;;;;39.53;26.35;;;20.30;99.90;;;;;;5113912;28;20161;-48
2022/08/05 06:33:59;;;;;;;38.22;26.13;;;20.20;99.90;;;;;;5113445;28;20173;-47
2022/08/05 06:36:25;;;;;;;36.45;25.38;;;20.20;99.90;;;;;;5113802;28;20175;-45
2022/08/05 06:38:53;;;;;;;39.03;24.88;;;20.20;99.90;;;;;;5113812;28;20206;-49
2022/08/05 06:41:19;;;;;;;36.03;23.98;;;20.20;99.90;;;;;;5113838;28;20176;-49
2022/08/05 06:43:45;;;;;;;34.13;24.73;;;20.20;99.90;;;;;;5132600;27;20257;-46
2022/08/05 06:46:11;;;;;;;34.95;23.52;;;20.20;99.90;;;;;;5134249;27;20659;-50
2022/08/05 06:48:36;;;;;;;32.53;22.27;;;20.10;99.90;;;;;;5134259;27;20530;-48
2022/08/05 06:51:03;;;;;;;28.77;20.77;;;20.00;99.90;;;;;;5134187;27;20171;-45
2022/08/05 06:53:29;;;;;;;30.95;23.63;;;19.90;99.90;;;;;;5134073;27;20688;-47
2022/08/05 06:55:56;;;;;;;34.60;23.80;;;20.10;99.90;;;;;;5134371;27;20260;-48
2022/08/05 06:58:21;;;;;;;34.17;23.10;;;20.10;99.90;;;;;;5134333;27;20531;-45
2022/08/05 07:00:47;;;;;;;36.50;23.35;;;20.10;99.90;;;;;;5134012;27;20167;-51
2022/08/05 07:03:12;;;;;;;36.85;23.70;;;20.00;99.90;;;;;;5133848;27;20207;-48
2022/08/05 07:05:38;;;;;;;37.13;23.75;;;20.10;99.90;;;;;;5134115;27;20168;-53
2022/08/05 07:08:04;;;;;;;21.38;15.68;;;20.10;99.90;;;;;;5133866;27;20168;-45
2022/08/05 07:10:30;;;;;;;24.20;16.75;;;19.80;99.90;;;;;;5133968;27;20194;-49
2022/08/05 07:18:24;;;;;;;16.55;13.95;;;19.70;99.90;;;;;;5133880;27;20167;-51
2022/08/05 07:20:50;;;;;;;20.42;14.60;;;19.50;99.90;;;;;;5133949;27;20589;-54
2022/08/05 07:23:15;;;;;;;22.02;14.70;;;19.50;99.90;;;;;;5133411;27;20287;-50
2022/08/05 07:25:41;;;;;;;18.65;12.80;;;19.30;99.90;;;;;;5121801;27;20169;-47
2022/08/05 07:28:06;;;;;;;20.98;13.23;;;19.30;99.90;;;;;;5101227;28;20180;-46
2022/08/05 07:30:34;;;;;;;19.77;13.40;;;19.30;99.90;;;;;;5092488;28;20260;-49
2022/08/05 07:33:01;;;;;;;22.55;14.25;;;19.40;99.90;;;;;;5092424;28;20222;-46
2022/08/05 07:35:26;;;;;;;21.08;14.20;;;19.30;99.90;;;;;;5092279;28;20172;-45
2022/08/05 07:37:52;;;;;;;18.35;13.45;;;19.30;99.90;;;;;;5092092;28;20169;-45
2022/08/05 07:40:17;;;;;;;20.42;13.80;;;19.30;99.90;;;;;;5091779;28;20641;-46
2022/08/05 07:42:43;;;;;;;19.17;13.45;;;19.30;99.90;;;;;;5091558;28;20177;-46
2022/08/05 07:45:09;;;;;;;19.40;11.73;;;19.30;99.90;;;;;;5110197;28;20544;-55
2022/08/05 07:47:35;;;;;;;22.95;12.25;;;19.30;99.90;;;;;;5111909;28;20156;-53
2022/08/05 07:50:00;;;;;;;16.98;11.57;;;19.40;99.90;;;;;;5111966;28;20176;-56
2022/08/05 07:52:26;;;;;;;16.42;12.18;;;19.40;99.90;;;;;;5112439;28;20161;-45
2022/08/05 07:54:52;;;;;;;16.05;12.23;;;19.40;99.90;;;;;;5112075;28;20503;-45
2022/08/05 07:57:17;;;;;;;14.73;11.63;;;19.30;99.90;;;;;;5112684;28;20213;-48
2022/08/05 07:59:43;;;;;;;15.10;11.15;;;19.30;99.90;;;;;;5112662;28;20210;-48
2022/08/05 08:02:09;;;;;;;17.55;10.18;;;19.20;99.90;;;;;;5112697;28;20608;-46
2022/08/05 08:04:35;;;;;;;13.23;10.68;;;19.10;99.90;;;;;;5112707;28;20295;-47
2022/08/05 08:07:01;;;;;;;14.73;11.40;;;19.20;99.90;;;;;;5112696;28;20248;-48
2022/08/05 08:09:27;;;;;;;16.08;11.35;;;19.10;99.90;;;;;;5112718;28;20256;-54
2022/08/05 08:11:52;;;;;;;14.25;9.85;;;19.10;99.90;;;;;;5112897;28;20679;-45
2022/08/05 08:14:18;;;;;;;15.68;10.13;;;19.10;99.90;;;;;;5112566;28;20180;-47
2022/08/05 08:16:44;;;;;;;12.60;8.80;;;19.10;99.90;;;;;;5112533;28;20697;-49
2022/08/05 08:19:09;;;;;;;15.00;10.23;;;19.00;99.90;;;;;;5112559;28;20200;-45
2022/08/05 08:21:35;;;;;;;12.15;9.65;;;18.90;99.90;;;;;;5112492;28;20248;-48
2022/08/05 08:24:01;;;;;;;15.02;10.02;;;18.90;99.90;;;;;;5112373;28;20247;-48
2022/08/05 08:26:26;;;;;;;15.05;9.07;;;18.90;99.90;;;;;;5112729;28;20168;-53
2022/08/05 08:28:52;;;;;;;11.93;8.90;;;18.90;99.90;;;;;;5112790;28;20164;-46
2022/08/05 08:31:17;;;;;;;14.25;7.95;;;18.90;99.90;;;;;;5112357;28;20253;-49
2022/08/05 08:33:43;;;;;;;13.80;9.10;;;18.90;99.90;;;;;;5112314;28;20639;-47
2022/08/05 08:36:09;;;;;;;11.40;9.00;;;18.90;99.90;;;;;;5112605;28;20534;-48
2022/08/05 08:38:35;;;;;;;13.15;7.80;;;18.90;99.90;;;;;;5111638;28;20175;-45
2022/08/05 08:41:04;;;;;;;10.27;7.55;;;18.90;99.90;;;;;;5112270;28;20247;-46
2022/08/05 08:43:32;;;;;;;11.50;7.53;;;19.00;99.90;;;;;;5112494;28;20665;-46
2022/08/05 08:46:00;;;;;;;14.20;7.82;;;19.00;99.90;;;;;;5112549;28;20214;-45
2022/08/05 08:48:27;;;;;;;8.55;6.68;;;19.10;99.90;;;;;;5112161;28;20561;-46
2022/08/05 08:50:53;;;;;;;8.38;5.90;;;19.20;99.90;;;;;;5112721;28;20172;-47
2022/08/05 08:53:20;;;;;;;9.20;7.05;;;19.20;99.90;;;;;;5112168;28;20646;-45
2022/08/05 08:55:46;;;;;;;11.32;6.00;;;19.10;99.90;;;;;;5112075;28;20164;-45
2022/08/05 08:58:15;;;;;;;9.18;5.80;;;19.10;99.90;;;;;;5112055;28;20160;-47
2022/08/05 09:00:43;;;;;;;8.00;6.00;;;19.20;99.90;;;;;;5112021;28;20225;-50
2022/08/05 09:03:10;;;;;;;13.95;6.10;;;19.10;99.90;;;;;;5112231;28;20192;-48
2022/08/05 09:05:36;;;;;;;9.75;5.20;;;19.10;99.90;;;;;;5112232;28;20177;-49
2022/08/05 09:08:02;;;;;;;6.72;5.95;;;19.00;99.90;;;;;;5112113;28;20164;-49
2022/08/05 09:10:28;;;;;;;6.75;5.13;;;19.20;99.90;;;;;;5112115;28;20165;-45
2022/08/05 09:12:54;;;;;;;9.05;5.00;;;19.00;99.90;;;;;;5112237;28;20740;-45
2022/08/05 09:15:20;;;;;;;9.40;6.30;;;19.20;99.90;;;;;;5111933;28;20608;-47
2022/08/05 09:17:46;;;;;;;11.43;5.43;;;19.00;99.90;;;;;;5111933;28;20165;-46
2022/08/05 09:20:12;;;;;;;9.13;5.75;;;19.10;99.90;;;;;;5111946;28;20579;-52
2022/08/05 09:23:09;;;;;;;8.15;5.32;;;19.00;99.90;;;;;;5112072;28;20175;-55
2022/08/05 09:25:35;;;;;;;10.30;6.07;;;19.10;99.90;;;;;;5112144;28;20261;-46
2022/08/05 09:28:19;;;;;;;8.23;6.15;;;19.20;99.90;;;;;;5111893;28;20191;-45
2022/08/05 09:30:57;;;;;;;8.15;5.72;;;19.30;99.90;;;;;;5112079;28;20230;-46
2022/08/05 09:33:24;;;;;;;7.25;4.85;;;19.30;99.90;;;;;;5112408;28;20169;-46
2022/08/05 09:35:59;;;;;;;11.10;4.95;;;19.50;99.90;;;;;;5112036;28;20187;-48
2022/08/05 09:38:25;;;;;;;5.85;4.15;;;19.60;99.90;;;;;;5112372;28;20168;-47
2022/08/05 09:40:52;;;;;;;8.32;4.20;;;20.00;99.90;;;;;;5111999;28;20196;-45
2022/08/05 09:43:30;;;;;;;6.88;4.10;;;19.60;99.90;;;;;;5111860;28;20246;-45
2022/08/05 09:45:55;;;;;;;4.57;4.00;;;19.70;99.90;;;;;;5111771;28;20236;-45
2022/08/05 09:48:30;;;;;;;6.57;4.43;;;19.70;99.90;;;;;;5112314;28;20322;-46
2022/08/05 09:51:01;;;;;;;6.57;3.90;;;19.70;99.90;;;;;;5112624;28;20159;-45
2022/08/05 09:53:28;;;;;;;6.13;3.97;;;19.80;99.90;;;;;;5115296;28;20239;-45
2022/08/05 09:55:56;;;;;;;7.55;4.57;;;19.90;99.90;;;;;;5115611;28;20160;-46
2022/08/05 09:58:22;;;;;;;8.18;4.63;;;20.50;99.90;;;;;;5115501;28;20651;-45
2022/08/05 10:01:14;;;;;;;9.43;4.60;;;20.10;99.90;;;;;;5115193;28;20188;-50
2022/08/05 10:03:54;;;;;;;6.45;3.95;;;20.20;99.90;;;;;;5110207;28;20298;-45
2022/08/05 10:06:20;;;;;;;9.65;4.32;;;20.00;99.90;;;;;;5115619;28;20161;-47
2022/08/05 10:08:45;;;;;;;6.53;4.57;;;20.00;99.90;;;;;;5115046;28;20168;-46
2022/08/05 10:11:16;;;;;;;7.22;4.43;;;20.00;99.90;;;;;;5114791;28;20218;-45
2022/08/05 10:13:42;;;;;;;6.32;4.63;;;20.20;99.90;;;;;;5114898;28;20176;-45
2022/08/05 10:16:31;;;;;;;11.27;4.90;;;20.20;99.90;;;;;;5114900;28;20681;-45
2022/08/05 10:18:57;;;;;;;6.55;3.60;;;20.60;99.90;;;;;;5114884;28;20194;-47
2022/08/05 10:21:23;;;;;;;5.30;3.72;;;20.70;99.90;;;;;;5115348;28;20175;-46
2022/08/05 10:23:49;;;;;;;4.43;3.80;;;20.80;99.90;;;;;;5114620;28;20209;-45
2022/08/05 10:26:15;;;;;;;9.07;4.13;;;20.90;99.90;;;;;;5114690;28;20180;-51
2022/08/05 10:28:42;;;;;;;6.00;3.80;;;20.90;99.90;;;;;;5114749;28;20230;-48
2022/08/05 10:31:11;;;;;;;5.82;3.25;;;21.10;99.90;;;;;;5114589;28;20230;-50
2022/08/05 10:33:37;;;;;;;6.55;4.43;;;21.10;99.90;;;;;;5114477;28;20635;-47
2022/08/05 10:36:03;;;;;;;6.13;4.50;;;21.20;99.90;;;;;;5114483;28;20165;-47
2022/08/05 10:38:31;;;;;;;8.20;5.15;;;21.30;99.90;;;;;;5114546;28;20191;-46
2022/08/05 10:41:10;;;;;;;11.80;5.45;;;21.40;99.90;;;;;;5114310;28;20173;-45
2022/08/05 10:43:51;;;;;;;7.40;5.20;;;21.40;99.90;;;;;;5114225;28;20199;-46
2022/08/05 10:46:18;;;;;;;6.47;4.85;;;21.60;99.90;;;;;;5114095;28;20164;-46
2022/08/05 10:48:57;;;;;;;7.28;5.43;;;21.90;99.90;;;;;;5114399;28;20177;-45
2022/08/05 10:51:23;;;;;;;8.43;5.82;;;21.80;99.90;;;;;;5114457;28;20221;-45
2022/08/05 10:53:55;;;;;;;7.07;5.15;;;21.80;99.90;;;;;;5114070;28;20676;-45
2022/08/05 10:56:23;;;;;;;8.23;5.88;;;21.90;99.90;;;;;;5114353;28;20512;-45
2022/08/05 10:58:57;;;;;;;7.97;5.53;;;22.10;99.90;;;;;;5114193;28;20173;-46
2022/08/05 11:01:35;;;;;;;6.70;5.15;;;22.20;99.90;;;;;;5113945;28;20166;-55
2022/08/05 11:04:13;;;;;;;7.00;5.15;;;22.30;99.90;;;;;;5114104;28;20211;-55
2022/08/05 11:06:59;;;;;;;7.90;5.50;;;22.40;99.90;;;;;;5114059;28;20232;-46
2022/08/05 11:09:35;;;;;;;8.52;5.13;;;22.60;99.90;;;;;;5114127;27;20183;-49
2022/08/05 11:12:01;;;;;;;9.07;5.13;;;22.80;99.90;;;;;;5113644;28;20664;-45
2022/08/05 11:14:29;;;;;;;8.70;5.03;;;22.80;99.90;;;;;;5113963;28;20534;-47
2022/08/05 11:17:26;;;;;;;7.95;4.45;;;23.10;99.90;;;;;;5113655;28;20165;-46
2022/08/05 11:19:56;;;;;;;7.60;4.13;;;23.10;99.90;;;;;;5113828;28;20647;-46
2022/08/05 11:22:49;;;;;;;7.28;3.53;;;23.50;99.90;;;;;;5114115;28;20555;-44
2022/08/05 11:25:34;;;;;;;4.28;2.72;;;23.50;99.90;;;;;;5113482;28;20638;-45
2022/08/05 11:28:23;;;;;;;4.15;3.60;;;23.60;99.90;;;;;;5113356;28;20635;-47
2022/08/05 11:30:54;;;;;;;4.70;3.33;;;23.90;99.90;;;;;;5066015;28;20229;-45
2022/08/05 11:33:37;;;;;;;4.32;2.63;;;24.50;99.90;;;;;;5113967;28;20251;-53
2022/08/05 11:36:10;;;;;;;6.38;3.00;;;24.60;99.90;;;;;;5113272;28;20255;-45
2022/08/05 11:38:41;;;;;;;3.97;2.40;;;25.00;99.90;;;;;;5113205;28;20237;-45
2022/08/05 11:41:15;;;;;;;5.75;2.40;;;24.80;99.90;;;;;;5113223;28;20164;-45
2022/08/05 11:44:09;;;;;;;4.78;2.35;;;24.50;99.90;;;;;;5113264;28;20231;-46
2022/08/05 11:46:40;;;;;;;5.32;2.97;;;24.10;99.90;;;;;;5113372;28;20176;-47
2022/08/05 11:49:10;;;;;;;4.28;2.50;;;24.30;99.90;;;;;;5113012;28;20260;-47
2022/08/05 11:51:37;;;;;;;3.58;2.70;;;24.40;99.90;;;;;;5112939;28;20220;-46
2022/08/05 11:54:02;;;;;;;2.72;2.30;;;24.60;99.90;;;;;;5112935;28;20170;-45
2022/08/05 11:56:49;;;;;;;2.72;2.53;;;24.90;99.90;;;;;;5112839;28;20160;-45
2022/08/05 11:59:26;;;;;;;3.25;2.80;;;25.00;99.90;;;;;;5113138;28;20188;-48
2022/08/05 12:02:12;;;;;;;2.90;2.55;;;24.60;99.90;;;;;;5113103;28;20163;-47
2022/08/05 12:04:47;;;;;;;3.08;2.30;;;25.00;99.90;;;;;;5112425;28;20674;-51
2022/08/05 12:07:16;;;;;;;2.55;2.20;;;25.10;99.90;;;;;;5112896;28;20164;-49
2022/08/05 12:09:46;;;;;;;5.90;2.45;;;25.00;99.90;;;;;;5112587;28;20179;-51
2022/08/05 12:12:12;;;;;;;6.28;3.00;;;25.00;99.90;;;;;;5112484;28;20208;-49
2022/08/05 12:14:39;;;;;;;2.95;2.38;;;24.90;99.90;;;;;;5111782;28;20163;-55
2022/08/05 12:17:13;;;;;;;4.38;2.88;;;24.70;99.90;;;;;;5112524;28;20265;-45
2022/08/05 12:19:49;;;;;;;6.47;2.80;;;24.50;99.90;;;;;;5112513;28;20160;-48
2022/08/05 12:22:20;;;;;;;3.78;2.78;;;24.40;99.90;;;;;;5112735;28;20171;-45
2022/08/05 12:24:49;;;;;;;7.13;3.15;;;24.40;99.90;;;;;;5112571;28;20223;-45
2022/08/05 12:27:26;;;;;;;5.10;2.78;;;24.20;99.90;;;;;;5112633;28;20287;-46
2022/08/05 12:30:19;;;;;;;6.03;2.70;;;24.10;99.90;;;;;;5112669;28;20624;-46
2022/08/05 12:32:50;;;;;;;5.68;2.88;;;23.90;99.90;;;;;;5108739;28;20215;-45
2022/08/05 12:35:16;;;;;;;3.60;2.40;;;24.00;99.90;;;;;;5112245;28;20164;-45
2022/08/05 12:37:44;;;;;;;4.97;2.58;;;24.10;99.90;;;;;;5112487;28;20224;-45
2022/08/05 12:40:10;;;;;;;6.25;2.85;;;24.20;99.90;;;;;;5112234;28;20196;-45
2022/08/05 12:42:36;;;;;;;2.80;2.50;;;24.00;99.90;;;;;;5112269;28;20172;-47
2022/08/05 12:45:05;;;;;;;4.57;2.50;;;24.10;99.90;;;;;;5112417;28;20231;-52
2022/08/05 12:47:31;;;;;;;4.82;2.80;;;24.00;99.90;;;;;;5112130;28;20643;-56
2022/08/05 12:49:57;;;;;;;3.92;2.78;;;24.10;99.90;;;;;;5112297;28;20172;-53
2022/08/05 12:52:23;;;;;;;4.03;2.67;;;24.30;99.90;;;;;;5112530;28;20527;-47
2022/08/05 12:54:49;;;;;;;3.70;2.63;;;24.30;99.90;;;;;;5112281;28;20172;-53